sensor_id;sensor_type;location;lat;lon;timestamp;temperature;humidity
60860;DHT22;46694;54.382;9.708;2024-01-07T00:01:58;1.40;99.90
60860;DHT22;46694;54.382;9.708;2024-01-07T00:04:23;1.40;99.90
60860;DHT22;46694;54.382;9.708;2024-01-07T00:06:49;1.40;99.90
60860;DHT22;46694;54.382;9.708;2024-01-07T00:09:16;1.30;99.90
60860;DHT22;46694;54.382;9.708;2024-01-07T00:11:42;1.30;99.90
60860;DHT22;46694;54.382;9.708;2024-01-07T00:14:08;1.30;99.90
60860;DHT22;46694;54.382;9.708;2024-01-07T00:16:34;1.30;99.90
60860;DHT22;46694;54.382;9.708;2024-01-07T00:18:59;1.30;99.90
60860;DHT22;46694;54.382;9.708;2024-01-07T00:21:25;1.30;99.90
60860;DHT22;46694;54.382;9.708;2024-01-07T00:24:00;1.30;99.90
60860;DHT22;46694;54.382;9.708;2024-01-07T00:26:26;1.30;99.90
60860;DHT22;46694;54.382;9.708;2024-01-07T00:28:52;1.30;99.90
60860;DHT22;46694;54.382;9.708;2024-01-07T00:31:17;1.30;99.90
60860;DHT22;46694;54.382;9.708;2024-01-07T00:33:43;1.30;99.90
60860;DHT22;46694;54.382;9.708;2024-01-07T00:36:09;1.30;99.90
60860;DHT22;46694;54.382;9.708;2024-01-07T00:38:35;1.30;99.90
60860;DHT22;46694;54.382;9.708;2024-01-07T00:41:01;1.30;99.90
60860;DHT22;46694;54.382;9.708;2024-01-07T00:43:26;1.30;99.90
60860;DHT22;46694;54.382;9.708;2024-01-07T00:45:52;1.30;99.90
60860;DHT22;46694;54.382;9.708;2024-01-07T00:48:18;1.30;99.90
60860;DHT22;46694;54.382;9.708;2024-01-07T00:50:44;1.30;99.90
60860;DHT22;46694;54.382;9.708;2024-01-07T00:53:10;1.30;99.90
60860;DHT22;46694;54.382;9.708;2024-01-07T00:55:35;1.30;99.90
60860;DHT22;46694;54.382;9.708;2024-01-07T00:58:02;1.30;99.90
60860;DHT22;46694;54.382;9.708;2024-01-07T01:00:28;1.30;99.90
60860;DHT22;46694;54.382;9.708;2024-01-07T01:02:55;1.30;99.90
60860;DHT22;46694;54.382;9.708;2024-01-07T01:05:21;1.30;99.90
60860;DHT22;46694;54.382;9.708;2024-01-07T01:07:46;1.20;99.90
60860;DHT22;46694;54.382;9.708;2024-01-07T01:10:12;1.20;99.90
60860;DHT22;46694;54.382;9.708;2024-01-07T01:12:42;1.20;99.90
60860;DHT22;46694;54.382;9.708;2024-01-07T01:15:09;1.20;99.90
60860;DHT22;46694;54.382;9.708;2024-01-07T01:17:35;1.20;99.90
60860;DHT22;46694;54.382;9.708;2024-01-07T01:20:01;1.10;99.90
60860;DHT22;46694;54.382;9.708;2024-01-07T01:22:28;1.10;99.90
60860;DHT22;46694;54.382;9.708;2024-01-07T01:24:54;1.20;99.90
60860;DHT22;46694;54.382;9.708;2024-01-07T01:27:21;1.10;99.90
60860;DHT22;46694;54.382;9.708;2024-01-07T01:29:47;1.10;99.90
60860;DHT22;46694;54.382;9.708;2024-01-07T01:32:13;1.10;99.90
60860;DHT22;46694;54.382;9.708;2024-01-07T01:34:40;1.10;99.90
60860;DHT22;46694;54.382;9.708;2024-01-07T01:37:08;1.10;99.90
60860;DHT22;46694;54.382;9.708;2024-01-07T01:39:34;1.10;99.90
60860;DHT22;46694;54.382;9.708;2024-01-07T01:42:12;1.10;99.90
60860;DHT22;46694;54.382;9.708;2024-01-07T01:44:37;1.10;99.90
60860;DHT22;46694;54.382;9.708;2024-01-07T01:47:05;1.10;99.90
60860;DHT22;46694;54.382;9.708;2024-01-07T01:49:32;1.10;99.90
60860;DHT22;46694;54.382;9.708;2024-01-07T01:51:58;1.10;99.90
60860;DHT22;46694;54.382;9.708;2024-01-07T01:54:24;1.10;99.90
60860;DHT22;46694;54.382;9.708;2024-01-07T01:56:51;1.10;99.90
60860;DHT22;46694;54.382;9.708;2024-01-07T01:59:17;1.10;99.90
60860;DHT22;46694;54.382;9.708;2024-01-07T02:01:44;1.10;99.90
60860;DHT22;46694;54.382;9.708;2024-01-07T02:04:10;1.10;99.90
60860;DHT22;46694;54.382;9.708;2024-01-07T02:06:36;1.00;99.90
60860;DHT22;46694;54.382;9.708;2024-01-07T02:09:02;1.00;99.90
60860;DHT22;46694;54.382;9.708;2024-01-07T02:11:29;1.00;99.90
60860;DHT22;46694;54.382;9.708;2024-01-07T02:13:54;1.00;99.90
60860;DHT22;46694;54.382;9.708;2024-01-07T02:16:20;1.00;99.90
60860;DHT22;46694;54.382;9.708;2024-01-07T02:18:46;1.00;99.90
60860;DHT22;46694;54.382;9.708;2024-01-07T02:21:15;1.10;99.90
60860;DHT22;46694;54.382;9.708;2024-01-07T02:23:41;1.00;99.90
60860;DHT22;46694;54.382;9.708;2024-01-07T02:26:07;1.10;99.90
60860;DHT22;46694;54.382;9.708;2024-01-07T02:28:33;1.00;99.90
60860;DHT22;46694;54.382;9.708;2024-01-07T02:31:00;1.00;99.90
60860;DHT22;46694;54.382;9.708;2024-01-07T02:33:26;1.00;99.90
60860;DHT22;46694;54.382;9.708;2024-01-07T02:35:51;1.00;99.90
60860;DHT22;46694;54.382;9.708;2024-01-07T02:38:17;1.00;99.90
60860;DHT22;46694;54.382;9.708;2024-01-07T02:40:46;1.00;99.90
60860;DHT22;46694;54.382;9.708;2024-01-07T02:43:12;1.00;99.90
60860;DHT22;46694;54.382;9.708;2024-01-07T02:45:38;1.00;99.90
60860;DHT22;46694;54.382;9.708;2024-01-07T02:48:04;1.00;99.90
60860;DHT22;46694;54.382;9.708;2024-01-07T02:50:32;1.00;99.90
60860;DHT22;46694;54.382;9.708;2024-01-07T02:52:58;1.00;99.90
60860;DHT22;46694;54.382;9.708;2024-01-07T02:55:24;1.00;99.90
60860;DHT22;46694;54.382;9.708;2024-01-07T02:57:49;1.00;99.90
60860;DHT22;46694;54.382;9.708;2024-01-07T03:00:15;1.00;99.90
60860;DHT22;46694;54.382;9.708;2024-01-07T03:02:41;1.00;99.90
60860;DHT22;46694;54.382;9.708;2024-01-07T03:05:08;1.00;99.90
60860;DHT22;46694;54.382;9.708;2024-01-07T03:07:34;1.00;99.90
60860;DHT22;46694;54.382;9.708;2024-01-07T03:09:59;1.00;99.90
60860;DHT22;46694;54.382;9.708;2024-01-07T03:12:25;1.00;99.90
60860;DHT22;46694;54.382;9.708;2024-01-07T03:14:51;0.90;99.90
60860;DHT22;46694;54.382;9.708;2024-01-07T03:17:17;0.90;99.90
60860;DHT22;46694;54.382;9.708;2024-01-07T03:20:07;0.90;99.90
60860;DHT22;46694;54.382;9.708;2024-01-07T03:22:34;0.90;99.90
60860;DHT22;46694;54.382;9.708;2024-01-07T03:24:59;0.90;99.90
60860;DHT22;46694;54.382;9.708;2024-01-07T03:27:25;0.80;99.90
60860;DHT22;46694;54.382;9.708;2024-01-07T03:29:51;0.80;99.90
60860;DHT22;46694;54.382;9.708;2024-01-07T03:32:17;0.80;99.90
60860;DHT22;46694;54.382;9.708;2024-01-07T03:34:43;0.80;99.90
60860;DHT22;46694;54.382;9.708;2024-01-07T03:37:09;0.80;99.90
60860;DHT22;46694;54.382;9.708;2024-01-07T03:39:35;0.80;99.90
60860;DHT22;46694;54.382;9.708;2024-01-07T03:42:01;0.80;99.90
60860;DHT22;46694;54.382;9.708;2024-01-07T03:44:27;0.80;99.90
60860;DHT22;46694;54.382;9.708;2024-01-07T03:46:53;0.80;99.90
60860;DHT22;46694;54.382;9.708;2024-01-07T03:49:19;0.80;99.90
60860;DHT22;46694;54.382;9.708;2024-01-07T03:51:44;0.80;99.90
60860;DHT22;46694;54.382;9.708;2024-01-07T03:54:10;0.80;99.90
60860;DHT22;46694;54.382;9.708;2024-01-07T03:56:36;0.80;99.90
60860;DHT22;46694;54.382;9.708;2024-01-07T03:59:02;0.70;99.90
60860;DHT22;46694;54.382;9.708;2024-01-07T04:01:27;0.70;99.90
60860;DHT22;46694;54.382;9.708;2024-01-07T04:03:53;0.70;99.90
60860;DHT22;46694;54.382;9.708;2024-01-07T04:06:19;0.70;99.90
60860;DHT22;46694;54.382;9.708;2024-01-07T04:08:45;0.70;99.90
60860;DHT22;46694;54.382;9.708;2024-01-07T04:11:11;0.70;99.90
60860;DHT22;46694;54.382;9.708;2024-01-07T04:13:37;0.70;99.90
60860;DHT22;46694;54.382;9.708;2024-01-07T04:16:03;0.60;99.90
60860;DHT22;46694;54.382;9.708;2024-01-07T04:18:29;0.60;99.90
60860;DHT22;46694;54.382;9.708;2024-01-07T04:20:55;0.60;99.90
60860;DHT22;46694;54.382;9.708;2024-01-07T04:23:21;0.60;99.90
60860;DHT22;46694;54.382;9.708;2024-01-07T04:25:46;0.60;99.90
60860;DHT22;46694;54.382;9.708;2024-01-07T04:28:12;0.50;99.90
60860;DHT22;46694;54.382;9.708;2024-01-07T04:30:38;0.50;99.90
60860;DHT22;46694;54.382;9.708;2024-01-07T04:33:04;0.50;99.90
60860;DHT22;46694;54.382;9.708;2024-01-07T04:35:30;0.50;99.90
60860;DHT22;46694;54.382;9.708;2024-01-07T04:37:55;0.50;99.90
60860;DHT22;46694;54.382;9.708;2024-01-07T04:40:21;0.50;99.90
60860;DHT22;46694;54.382;9.708;2024-01-07T04:42:47;0.50;99.90
60860;DHT22;46694;54.382;9.708;2024-01-07T04:45:13;0.50;99.90
60860;DHT22;46694;54.382;9.708;2024-01-07T04:47:39;0.50;99.90
60860;DHT22;46694;54.382;9.708;2024-01-07T04:50:05;0.40;99.90
60860;DHT22;46694;54.382;9.708;2024-01-07T04:52:31;0.40;99.90
60860;DHT22;46694;54.382;9.708;2024-01-07T04:54:57;0.50;99.90
60860;DHT22;46694;54.382;9.708;2024-01-07T04:57:23;0.50;99.90
60860;DHT22;46694;54.382;9.708;2024-01-07T04:59:50;0.50;99.90
60860;DHT22;46694;54.382;9.708;2024-01-07T05:02:16;0.50;99.90
60860;DHT22;46694;54.382;9.708;2024-01-07T05:04:42;0.50;99.90
60860;DHT22;46694;54.382;9.708;2024-01-07T05:07:08;0.50;99.90
60860;DHT22;46694;54.382;9.708;2024-01-07T05:09:34;0.50;99.90
60860;DHT22;46694;54.382;9.708;2024-01-07T05:12:00;0.50;99.90
60860;DHT22;46694;54.382;9.708;2024-01-07T05:14:26;0.50;99.90
60860;DHT22;46694;54.382;9.708;2024-01-07T05:16:55;0.50;99.90
60860;DHT22;46694;54.382;9.708;2024-01-07T05:19:21;0.50;99.90
60860;DHT22;46694;54.382;9.708;2024-01-07T05:21:47;0.50;99.90
60860;DHT22;46694;54.382;9.708;2024-01-07T05:24:13;0.50;99.90
60860;DHT22;46694;54.382;9.708;2024-01-07T05:26:43;0.50;99.90
60860;DHT22;46694;54.382;9.708;2024-01-07T05:29:10;0.50;99.90
60860;DHT22;46694;54.382;9.708;2024-01-07T05:31:40;0.60;99.90
60860;DHT22;46694;54.382;9.708;2024-01-07T05:34:06;0.50;99.90
60860;DHT22;46694;54.382;9.708;2024-01-07T05:36:32;0.60;99.90
60860;DHT22;46694;54.382;9.708;2024-01-07T05:38:57;0.60;99.90
60860;DHT22;46694;54.382;9.708;2024-01-07T05:41:23;0.60;99.90
60860;DHT22;46694;54.382;9.708;2024-01-07T05:43:49;0.60;99.90
60860;DHT22;46694;54.382;9.708;2024-01-07T05:46:16;0.60;99.90
60860;DHT22;46694;54.382;9.708;2024-01-07T05:48:47;0.60;99.90
60860;DHT22;46694;54.382;9.708;2024-01-07T05:51:14;0.50;99.90
60860;DHT22;46694;54.382;9.708;2024-01-07T05:53:41;0.50;99.90
60860;DHT22;46694;54.382;9.708;2024-01-07T05:56:07;0.50;99.90
60860;DHT22;46694;54.382;9.708;2024-01-07T05:58:33;0.50;99.90
60860;DHT22;46694;54.382;9.708;2024-01-07T06:00:59;0.50;99.90
60860;DHT22;46694;54.382;9.708;2024-01-07T06:03:26;0.40;99.90
60860;DHT22;46694;54.382;9.708;2024-01-07T06:05:52;0.40;99.90
60860;DHT22;46694;54.382;9.708;2024-01-07T06:08:18;0.50;99.90
60860;DHT22;46694;54.382;9.708;2024-01-07T06:10:44;0.50;99.90
60860;DHT22;46694;54.382;9.708;2024-01-07T06:13:10;0.50;99.90
60860;DHT22;46694;54.382;9.708;2024-01-07T06:15:36;0.50;99.90
60860;DHT22;46694;54.382;9.708;2024-01-07T06:18:02;0.50;99.90
60860;DHT22;46694;54.382;9.708;2024-01-07T06:20:27;0.50;99.90
60860;DHT22;46694;54.382;9.708;2024-01-07T06:22:53;0.50;99.90
60860;DHT22;46694;54.382;9.708;2024-01-07T06:25:19;0.50;99.90
60860;DHT22;46694;54.382;9.708;2024-01-07T06:27:46;0.50;99.90
60860;DHT22;46694;54.382;9.708;2024-01-07T06:30:12;0.50;99.90
60860;DHT22;46694;54.382;9.708;2024-01-07T06:32:38;0.40;99.90
60860;DHT22;46694;54.382;9.708;2024-01-07T06:35:04;0.40;99.90
60860;DHT22;46694;54.382;9.708;2024-01-07T06:37:30;0.40;99.90
60860;DHT22;46694;54.382;9.708;2024-01-07T06:39:56;0.40;99.90
60860;DHT22;46694;54.382;9.708;2024-01-07T06:42:24;0.40;99.90
60860;DHT22;46694;54.382;9.708;2024-01-07T06:44:50;0.40;99.90
60860;DHT22;46694;54.382;9.708;2024-01-07T06:47:16;0.40;99.90
60860;DHT22;46694;54.382;9.708;2024-01-07T06:49:41;0.30;99.90
60860;DHT22;46694;54.382;9.708;2024-01-07T06:52:07;0.30;99.90
60860;DHT22;46694;54.382;9.708;2024-01-07T06:54:33;0.30;99.90
60860;DHT22;46694;54.382;9.708;2024-01-07T06:56:59;0.20;99.90
60860;DHT22;46694;54.382;9.708;2024-01-07T06:59:25;0.20;99.90
60860;DHT22;46694;54.382;9.708;2024-01-07T07:01:51;0.20;99.90
60860;DHT22;46694;54.382;9.708;2024-01-07T07:04:16;0.20;99.90
60860;DHT22;46694;54.382;9.708;2024-01-07T07:06:42;0.10;99.90
60860;DHT22;46694;54.382;9.708;2024-01-07T07:09:09;0.10;99.90
60860;DHT22;46694;54.382;9.708;2024-01-07T07:11:37;0.10;99.90
60860;DHT22;46694;54.382;9.708;2024-01-07T07:14:02;0.00;99.90
60860;DHT22;46694;54.382;9.708;2024-01-07T07:16:28;0.00;99.90
60860;DHT22;46694;54.382;9.708;2024-01-07T07:18:54;0.00;99.90
60860;DHT22;46694;54.382;9.708;2024-01-07T07:21:20;0.00;99.90
60860;DHT22;46694;54.382;9.708;2024-01-07T07:23:45;-0.10;99.90
60860;DHT22;46694;54.382;9.708;2024-01-07T07:26:11;-0.10;99.90
60860;DHT22;46694;54.382;9.708;2024-01-07T07:28:37;-0.10;99.90
60860;DHT22;46694;54.382;9.708;2024-01-07T07:31:03;-0.10;99.90
60860;DHT22;46694;54.382;9.708;2024-01-07T07:33:29;-0.10;99.90
60860;DHT22;46694;54.382;9.708;2024-01-07T07:35:54;-0.20;99.90
60860;DHT22;46694;54.382;9.708;2024-01-07T07:38:20;-0.20;99.90
60860;DHT22;46694;54.382;9.708;2024-01-07T07:40:46;-0.20;99.90
60860;DHT22;46694;54.382;9.708;2024-01-07T07:43:20;-0.20;99.90
60860;DHT22;46694;54.382;9.708;2024-01-07T07:45:46;-0.30;99.90
60860;DHT22;46694;54.382;9.708;2024-01-07T07:48:12;-0.30;99.90
60860;DHT22;46694;54.382;9.708;2024-01-07T07:50:38;-0.30;99.90
60860;DHT22;46694;54.382;9.708;2024-01-07T07:53:05;-0.30;99.90
60860;DHT22;46694;54.382;9.708;2024-01-07T07:55:32;-0.40;99.90
60860;DHT22;46694;54.382;9.708;2024-01-07T07:57:58;-0.40;99.90
60860;DHT22;46694;54.382;9.708;2024-01-07T08:00:23;-0.40;99.90
60860;DHT22;46694;54.382;9.708;2024-01-07T08:02:49;-0.40;99.90
60860;DHT22;46694;54.382;9.708;2024-01-07T08:05:15;-0.50;99.90
60860;DHT22;46694;54.382;9.708;2024-01-07T08:07:42;-0.50;99.90
60860;DHT22;46694;54.382;9.708;2024-01-07T08:10:08;-0.50;99.90
60860;DHT22;46694;54.382;9.708;2024-01-07T08:12:34;-0.50;99.90
60860;DHT22;46694;54.382;9.708;2024-01-07T08:15:01;-0.60;99.90
60860;DHT22;46694;54.382;9.708;2024-01-07T08:17:27;-0.60;99.90
60860;DHT22;46694;54.382;9.708;2024-01-07T08:19:54;-0.60;99.90
60860;DHT22;46694;54.382;9.708;2024-01-07T08:22:19;-0.70;99.90
60860;DHT22;46694;54.382;9.708;2024-01-07T08:24:45;-0.70;99.90
60860;DHT22;46694;54.382;9.708;2024-01-07T08:27:11;-0.70;99.90
60860;DHT22;46694;54.382;9.708;2024-01-07T08:29:37;-0.70;99.90
60860;DHT22;46694;54.382;9.708;2024-01-07T08:32:03;-0.70;99.90
60860;DHT22;46694;54.382;9.708;2024-01-07T08:34:29;-0.70;99.90
60860;DHT22;46694;54.382;9.708;2024-01-07T08:36:54;-0.70;99.90
60860;DHT22;46694;54.382;9.708;2024-01-07T08:39:20;-0.70;99.90
60860;DHT22;46694;54.382;9.708;2024-01-07T08:41:46;-0.70;99.90
60860;DHT22;46694;54.382;9.708;2024-01-07T08:44:12;-0.70;99.90
60860;DHT22;46694;54.382;9.708;2024-01-07T08:46:38;-0.70;99.90
60860;DHT22;46694;54.382;9.708;2024-01-07T08:49:04;-0.70;99.90
60860;DHT22;46694;54.382;9.708;2024-01-07T08:51:29;-0.70;99.90
60860;DHT22;46694;54.382;9.708;2024-01-07T08:53:56;-0.70;99.90
60860;DHT22;46694;54.382;9.708;2024-01-07T08:56:23;-0.70;99.90
60860;DHT22;46694;54.382;9.708;2024-01-07T08:58:49;-0.70;99.90
60860;DHT22;46694;54.382;9.708;2024-01-07T09:01:15;-0.70;99.90
60860;DHT22;46694;54.382;9.708;2024-01-07T09:03:41;-0.70;99.90
60860;DHT22;46694;54.382;9.708;2024-01-07T09:06:07;-0.70;99.90
60860;DHT22;46694;54.382;9.708;2024-01-07T09:08:34;-0.70;99.90
60860;DHT22;46694;54.382;9.708;2024-01-07T09:11:03;-0.60;99.90
60860;DHT22;46694;54.382;9.708;2024-01-07T09:13:29;-0.60;99.90
60860;DHT22;46694;54.382;9.708;2024-01-07T09:15:55;-0.50;99.90
60860;DHT22;46694;54.382;9.708;2024-01-07T09:18:21;-0.40;99.90
60860;DHT22;46694;54.382;9.708;2024-01-07T09:20:46;-0.30;99.90
60860;DHT22;46694;54.382;9.708;2024-01-07T09:23:12;-0.10;99.90
60860;DHT22;46694;54.382;9.708;2024-01-07T09:25:38;0.10;99.90
60860;DHT22;46694;54.382;9.708;2024-01-07T09:28:04;0.30;99.90
60860;DHT22;46694;54.382;9.708;2024-01-07T09:30:30;0.40;99.90
60860;DHT22;46694;54.382;9.708;2024-01-07T09:32:56;0.50;99.90
60860;DHT22;46694;54.382;9.708;2024-01-07T09:35:22;0.70;99.90
60860;DHT22;46694;54.382;9.708;2024-01-07T09:37:48;0.80;99.90
60860;DHT22;46694;54.382;9.708;2024-01-07T09:40:17;1.00;99.90
60860;DHT22;46694;54.382;9.708;2024-01-07T09:42:44;1.20;99.90
60860;DHT22;46694;54.382;9.708;2024-01-07T09:45:13;1.30;99.90
60860;DHT22;46694;54.382;9.708;2024-01-07T09:47:42;1.40;99.90
60860;DHT22;46694;54.382;9.708;2024-01-07T09:50:10;1.50;99.90
60860;DHT22;46694;54.382;9.708;2024-01-07T09:52:38;1.60;99.90
60860;DHT22;46694;54.382;9.708;2024-01-07T09:55:09;1.80;99.90
60860;DHT22;46694;54.382;9.708;2024-01-07T09:57:40;1.90;99.90
60860;DHT22;46694;54.382;9.708;2024-01-07T10:00:09;2.00;99.90
60860;DHT22;46694;54.382;9.708;2024-01-07T10:02:35;2.20;99.90
60860;DHT22;46694;54.382;9.708;2024-01-07T10:05:01;2.20;99.90
60860;DHT22;46694;54.382;9.708;2024-01-07T10:07:27;2.20;99.90
60860;DHT22;46694;54.382;9.708;2024-01-07T10:09:53;2.30;99.90
60860;DHT22;46694;54.382;9.708;2024-01-07T10:12:24;2.30;99.90
60860;DHT22;46694;54.382;9.708;2024-01-07T10:14:50;2.20;99.90
60860;DHT22;46694;54.382;9.708;2024-01-07T10:17:16;2.20;99.90
60860;DHT22;46694;54.382;9.708;2024-01-07T10:19:46;2.10;99.90
60860;DHT22;46694;54.382;9.708;2024-01-07T10:22:12;2.20;99.90
60860;DHT22;46694;54.382;9.708;2024-01-07T10:24:40;2.00;99.90
60860;DHT22;46694;54.382;9.708;2024-01-07T10:27:07;2.00;99.90
60860;DHT22;46694;54.382;9.708;2024-01-07T10:29:33;2.00;99.90
60860;DHT22;46694;54.382;9.708;2024-01-07T10:32:00;2.00;99.90
60860;DHT22;46694;54.382;9.708;2024-01-07T10:34:35;2.00;99.90
60860;DHT22;46694;54.382;9.708;2024-01-07T10:37:03;2.10;99.90
60860;DHT22;46694;54.382;9.708;2024-01-07T10:39:34;2.20;99.90
60860;DHT22;46694;54.382;9.708;2024-01-07T10:42:00;2.20;99.90
60860;DHT22;46694;54.382;9.708;2024-01-07T10:44:27;2.20;99.90
60860;DHT22;46694;54.382;9.708;2024-01-07T10:46:55;2.20;99.90
60860;DHT22;46694;54.382;9.708;2024-01-07T10:49:25;2.10;99.90
60860;DHT22;46694;54.382;9.708;2024-01-07T10:52:04;2.10;99.90
60860;DHT22;46694;54.382;9.708;2024-01-07T10:54:32;2.10;99.90
60860;DHT22;46694;54.382;9.708;2024-01-07T10:59:45;2.10;99.90
60860;DHT22;46694;54.382;9.708;2024-01-07T11:02:11;2.00;99.90
60860;DHT22;46694;54.382;9.708;2024-01-07T11:05:00;1.90;99.90
60860;DHT22;46694;54.382;9.708;2024-01-07T11:07:46;1.90;99.90
60860;DHT22;46694;54.382;9.708;2024-01-07T11:10:44;1.90;99.90
60860;DHT22;46694;54.382;9.708;2024-01-07T11:13:42;1.90;99.90
60860;DHT22;46694;54.382;9.708;2024-01-07T11:16:08;2.00;99.90
60860;DHT22;46694;54.382;9.708;2024-01-07T11:18:38;2.00;99.90
60860;DHT22;46694;54.382;9.708;2024-01-07T11:21:05;2.00;99.90
60860;DHT22;46694;54.382;9.708;2024-01-07T11:23:35;2.00;99.90
60860;DHT22;46694;54.382;9.708;2024-01-07T11:26:04;1.90;99.90
60860;DHT22;46694;54.382;9.708;2024-01-07T11:28:53;1.70;99.90
60860;DHT22;46694;54.382;9.708;2024-01-07T11:31:42;1.50;99.90
60860;DHT22;46694;54.382;9.708;2024-01-07T11:34:09;1.40;99.90
60860;DHT22;46694;54.382;9.708;2024-01-07T11:36:38;1.30;99.90
60860;DHT22;46694;54.382;9.708;2024-01-07T11:39:05;1.20;99.90
60860;DHT22;46694;54.382;9.708;2024-01-07T11:41:34;1.20;99.90
60860;DHT22;46694;54.382;9.708;2024-01-07T11:44:01;1.10;99.90
60860;DHT22;46694;54.382;9.708;2024-01-07T11:46:29;1.00;99.90
60860;DHT22;46694;54.382;9.708;2024-01-07T11:48:57;1.00;99.90
60860;DHT22;46694;54.382;9.708;2024-01-07T11:51:31;1.00;99.90
60860;DHT22;46694;54.382;9.708;2024-01-07T11:54:00;1.00;99.90
60860;DHT22;46694;54.382;9.708;2024-01-07T11:56:27;1.00;99.90
60860;DHT22;46694;54.382;9.708;2024-01-07T11:58:53;1.10;99.90
60860;DHT22;46694;54.382;9.708;2024-01-07T12:01:21;1.00;99.90
60860;DHT22;46694;54.382;9.708;2024-01-07T12:03:47;1.10;99.90
60860;DHT22;46694;54.382;9.708;2024-01-07T12:06:14;1.00;99.90
60860;DHT22;46694;54.382;9.708;2024-01-07T12:08:41;1.00;99.90
60860;DHT22;46694;54.382;9.708;2024-01-07T12:11:08;1.00;99.90
60860;DHT22;46694;54.382;9.708;2024-01-07T12:13:37;0.90;99.90
60860;DHT22;46694;54.382;9.708;2024-01-07T12:16:04;0.80;99.90
60860;DHT22;46694;54.382;9.708;2024-01-07T12:18:30;0.70;99.90
60860;DHT22;46694;54.382;9.708;2024-01-07T12:20:58;0.60;99.90
60860;DHT22;46694;54.382;9.708;2024-01-07T12:23:28;0.50;99.90
60860;DHT22;46694;54.382;9.708;2024-01-07T12:25:54;0.30;99.90
60860;DHT22;46694;54.382;9.708;2024-01-07T12:28:21;0.20;99.90
60860;DHT22;46694;54.382;9.708;2024-01-07T12:30:50;0.10;99.90
60860;DHT22;46694;54.382;9.708;2024-01-07T12:33:19;0.00;99.90
60860;DHT22;46694;54.382;9.708;2024-01-07T12:35:46;0.00;99.90
60860;DHT22;46694;54.382;9.708;2024-01-07T12:38:13;0.00;99.90
60860;DHT22;46694;54.382;9.708;2024-01-07T12:40:39;0.10;99.90
60860;DHT22;46694;54.382;9.708;2024-01-07T12:43:05;0.10;99.90
60860;DHT22;46694;54.382;9.708;2024-01-07T12:45:34;0.20;99.90
60860;DHT22;46694;54.382;9.708;2024-01-07T12:47:59;0.20;99.90
60860;DHT22;46694;54.382;9.708;2024-01-07T12:50:28;0.10;99.90
60860;DHT22;46694;54.382;9.708;2024-01-07T12:52:56;0.00;99.90
60860;DHT22;46694;54.382;9.708;2024-01-07T12:55:22;-0.10;99.90
60860;DHT22;46694;54.382;9.708;2024-01-07T12:57:48;-0.20;99.90
60860;DHT22;46694;54.382;9.708;2024-01-07T13:00:15;-0.30;99.90
60860;DHT22;46694;54.382;9.708;2024-01-07T13:02:41;-0.30;99.90
60860;DHT22;46694;54.382;9.708;2024-01-07T13:05:08;-0.30;99.90
60860;DHT22;46694;54.382;9.708;2024-01-07T13:07:34;-0.40;99.90
60860;DHT22;46694;54.382;9.708;2024-01-07T13:10:00;-0.40;99.90
60860;DHT22;46694;54.382;9.708;2024-01-07T13:12:26;-0.40;99.90
60860;DHT22;46694;54.382;9.708;2024-01-07T13:14:52;-0.40;99.90
60860;DHT22;46694;54.382;9.708;2024-01-07T13:17:19;-0.40;99.90
60860;DHT22;46694;54.382;9.708;2024-01-07T13:19:45;-0.40;99.90
60860;DHT22;46694;54.382;9.708;2024-01-07T13:22:11;-0.40;99.90
60860;DHT22;46694;54.382;9.708;2024-01-07T13:24:37;-0.40;99.90
60860;DHT22;46694;54.382;9.708;2024-01-07T13:27:03;-0.40;99.90
60860;DHT22;46694;54.382;9.708;2024-01-07T13:29:29;-0.40;99.90
60860;DHT22;46694;54.382;9.708;2024-01-07T13:31:55;-0.40;99.90
60860;DHT22;46694;54.382;9.708;2024-01-07T13:34:21;-0.40;99.90
60860;DHT22;46694;54.382;9.708;2024-01-07T13:36:46;-0.50;99.90
60860;DHT22;46694;54.382;9.708;2024-01-07T13:39:12;-0.40;99.90
60860;DHT22;46694;54.382;9.708;2024-01-07T13:41:41;-0.40;99.90
60860;DHT22;46694;54.382;9.708;2024-01-07T13:44:07;-0.30;99.90
60860;DHT22;46694;54.382;9.708;2024-01-07T13:46:33;-0.30;99.90
60860;DHT22;46694;54.382;9.708;2024-01-07T13:48:59;-0.30;99.90
60860;DHT22;46694;54.382;9.708;2024-01-07T13:51:28;-0.30;99.90
60860;DHT22;46694;54.382;9.708;2024-01-07T13:53:54;-0.30;99.90
60860;DHT22;46694;54.382;9.708;2024-01-07T13:56:20;-0.40;99.90
60860;DHT22;46694;54.382;9.708;2024-01-07T13:58:46;-0.40;99.90
60860;DHT22;46694;54.382;9.708;2024-01-07T14:01:15;-0.30;99.90
60860;DHT22;46694;54.382;9.708;2024-01-07T14:03:41;-0.10;99.90
60860;DHT22;46694;54.382;9.708;2024-01-07T14:06:07;0.00;99.90
60860;DHT22;46694;54.382;9.708;2024-01-07T14:08:33;0.00;99.90
60860;DHT22;46694;54.382;9.708;2024-01-07T14:10:59;0.10;99.90
60860;DHT22;46694;54.382;9.708;2024-01-07T14:13:25;0.10;99.90
60860;DHT22;46694;54.382;9.708;2024-01-07T14:15:51;0.10;99.90
60860;DHT22;46694;54.382;9.708;2024-01-07T14:18:16;0.20;99.90
60860;DHT22;46694;54.382;9.708;2024-01-07T14:20:45;0.20;99.90
60860;DHT22;46694;54.382;9.708;2024-01-07T14:23:11;0.30;99.90
60860;DHT22;46694;54.382;9.708;2024-01-07T14:25:37;0.30;99.90
60860;DHT22;46694;54.382;9.708;2024-01-07T14:28:03;0.30;99.90
60860;DHT22;46694;54.382;9.708;2024-01-07T14:30:29;0.30;99.90
60860;DHT22;46694;54.382;9.708;2024-01-07T14:32:55;0.30;99.90
60860;DHT22;46694;54.382;9.708;2024-01-07T14:35:21;0.30;99.90
60860;DHT22;46694;54.382;9.708;2024-01-07T14:37:48;0.30;99.90
60860;DHT22;46694;54.382;9.708;2024-01-07T14:40:14;0.20;99.90
60860;DHT22;46694;54.382;9.708;2024-01-07T14:42:40;0.20;99.90
60860;DHT22;46694;54.382;9.708;2024-01-07T14:45:06;0.20;99.90
60860;DHT22;46694;54.382;9.708;2024-01-07T14:47:34;0.20;99.90
60860;DHT22;46694;54.382;9.708;2024-01-07T14:50:24;0.10;99.90
60860;DHT22;46694;54.382;9.708;2024-01-07T14:52:50;0.10;99.90
60860;DHT22;46694;54.382;9.708;2024-01-07T14:55:16;0.10;99.90
60860;DHT22;46694;54.382;9.708;2024-01-07T14:57:42;0.10;99.90
60860;DHT22;46694;54.382;9.708;2024-01-07T15:00:08;0.10;99.90
60860;DHT22;46694;54.382;9.708;2024-01-07T15:02:34;0.10;99.90
60860;DHT22;46694;54.382;9.708;2024-01-07T15:05:01;0.10;99.90
60860;DHT22;46694;54.382;9.708;2024-01-07T15:07:28;0.00;99.90
60860;DHT22;46694;54.382;9.708;2024-01-07T15:09:54;0.00;99.90
60860;DHT22;46694;54.382;9.708;2024-01-07T15:12:20;0.00;99.90
60860;DHT22;46694;54.382;9.708;2024-01-07T15:14:47;0.00;99.90
60860;DHT22;46694;54.382;9.708;2024-01-07T15:17:13;0.00;99.90
60860;DHT22;46694;54.382;9.708;2024-01-07T15:19:42;0.00;99.90
60860;DHT22;46694;54.382;9.708;2024-01-07T15:22:08;0.00;99.90
60860;DHT22;46694;54.382;9.708;2024-01-07T15:24:34;0.00;99.90
60860;DHT22;46694;54.382;9.708;2024-01-07T15:27:00;0.00;99.90
60860;DHT22;46694;54.382;9.708;2024-01-07T15:29:25;0.00;99.90
60860;DHT22;46694;54.382;9.708;2024-01-07T15:31:51;-0.10;99.90
60860;DHT22;46694;54.382;9.708;2024-01-07T15:34:17;-0.10;99.90
60860;DHT22;46694;54.382;9.708;2024-01-07T15:36:43;-0.20;99.90
60860;DHT22;46694;54.382;9.708;2024-01-07T15:39:09;-0.20;99.90
60860;DHT22;46694;54.382;9.708;2024-01-07T15:41:37;-0.20;99.90
60860;DHT22;46694;54.382;9.708;2024-01-07T15:44:03;-0.20;99.90